St George Municipal Airport
KSGU : now visible

Airfield :











YOU CAN JOIN US ON...

 
LOGIN :

Register | Disclaimer

   EN    FR    IT 

 









Legend :    VFR   Marginal VFR   IFR   Intensive IFR   Very Intensive IFR
Visi :
Ceiling :
>= 8 km
>= 3000ft
5 to 8 km
1000 to 3000 ft
1500m to 5 km
500 to 1000 ft
800 to 1500m
200 to 500 ft
< 800m
< 200 ft
Symbols :   Thunderstorms  Fog  Heavy snow  Heavy precipitations  Wind > 20 kt







- Airport Elevation : 2941 ft


KSGU - St George Municipal

CURRENT METAR :
  • 190056Z AUTO 30010KT 10SM CLR 21/M05 A3001 RMK AO2 SLP150 T02111050 PNO $

EXPIRED METARs :
  • 182356Z AUTO 30008KT 10SM CLR 22/M03 A3001 RMK AO2 SLP148 6//// T02171033 10217 20128 56014 PNO $
  • 182256Z AUTO VRB05KT 10SM CLR 22/M03 A3002 RMK AO2 SLP149 T02171033 PNO $

TAF KSGU
Valid from the 19 at 00:00 until the 20 at 00:00 UTC


182320Z 1900/1924 30006KT P6SM SCT250
FM190200 VRB04KT P6SM FEW200 SCT250
FM191700 33006KT P6SM SCT180
KZLA FIR / North America



MET'MAP, your aeronautical weather chart ! - Copyright ORBIFLY December 2007 - Disclaimer

ORBIFLY MET'MAP TEAM :

Programming & Development : Alexandra Zaïnal
Concept & Development : Baudouin d'Aumeries
Co-Development & Prog : Marc-Olivier Méhu
Technical & hardware support : Manuel Goepfert

Contact : metmap@orbifly.com




SOURCES & CREDITS :

   NOAA       Earth
Advisory